Middle Georgia Regional Airport Macon US
ICAO: KMCN
IATA: MCN
Category: Medium
Scheduled Services: Yes

Elevation: 354 ft
TransAlt. 18000 ft.

Airport Communications:
ATLANTA APP/DEP:118.95
ASOS:120.775
ATIS:120.775
CTAF:128.2
GND:121.65
MACON RDO:122.2
MACON TWR:128.2
UNICOM:122.95

KMCN Zoom In..

Runways:

(A) RW 05 length 6501 ft width 150 ft
ILS 109.50 / hdg 51

(B) RW 13 length 5000 ft width 150 ft
---- / hdg 133

(C) RW 23 length 6501 ft width 150 ft
---- / hdg 231

(D) RW 31 length 5000 ft width 150 ft
---- / hdg 313

Location; KMCN
Day. 22 / Time. 03.53 Zulu
* Altimeter: 30.19
* Temperature: 07° c. 44.6°f.
* Wind from: 000° Speed 00 kn.
Dewpoint: 04° c.
Visibility: 10 Statute Miles.
Clouds: Clear (automated report).

KMCN 220353Z AUTO 00000KT 10SM CLR 07/04 A3019 RMK AO2 SLP222 T00670044


Wind - Calm.

jpsM music video
CHECK IT OUT

jpsM - It Moves..

 
jpsmedia.com for Web Design  worldairports.se 2018   terms of use